sensor_id;sensor_type;location;lat;lon;timestamp;temperature;humidity
6106;DHT22;3083;51.508;7.966;2023-05-16T00:00:56;11.50;99.90
6106;DHT22;3083;51.508;7.966;2023-05-16T00:03:23;11.40;99.90
6106;DHT22;3083;51.508;7.966;2023-05-16T00:05:52;11.40;99.90
6106;DHT22;3083;51.508;7.966;2023-05-16T00:08:18;11.40;99.90
6106;DHT22;3083;51.508;7.966;2023-05-16T00:10:45;11.30;99.90
6106;DHT22;3083;51.508;7.966;2023-05-16T00:13:11;11.20;99.90
6106;DHT22;3083;51.508;7.966;2023-05-16T00:15:39;11.10;99.90
6106;DHT22;3083;51.508;7.966;2023-05-16T00:18:06;11.10;99.90
6106;DHT22;3083;51.508;7.966;2023-05-16T00:20:33;11.00;99.90
6106;DHT22;3083;51.508;7.966;2023-05-16T00:23:01;11.00;99.90
6106;DHT22;3083;51.508;7.966;2023-05-16T00:25:28;10.90;99.90
6106;DHT22;3083;51.508;7.966;2023-05-16T00:27:54;10.90;99.90
6106;DHT22;3083;51.508;7.966;2023-05-16T00:30:21;10.80;99.90
6106;DHT22;3083;51.508;7.966;2023-05-16T00:32:48;10.80;99.90
6106;DHT22;3083;51.508;7.966;2023-05-16T00:35:14;10.80;99.90
6106;DHT22;3083;51.508;7.966;2023-05-16T00:37:41;10.70;99.90
6106;DHT22;3083;51.508;7.966;2023-05-16T00:40:10;10.70;99.90
6106;DHT22;3083;51.508;7.966;2023-05-16T00:42:37;10.70;99.90
6106;DHT22;3083;51.508;7.966;2023-05-16T00:45:04;10.70;99.90
6106;DHT22;3083;51.508;7.966;2023-05-16T00:47:31;10.60;99.90
6106;DHT22;3083;51.508;7.966;2023-05-16T00:49:57;10.50;99.90
6106;DHT22;3083;51.508;7.966;2023-05-16T00:52:24;10.50;99.90
6106;DHT22;3083;51.508;7.966;2023-05-16T00:54:51;10.40;99.90
6106;DHT22;3083;51.508;7.966;2023-05-16T00:57:19;10.30;99.90
6106;DHT22;3083;51.508;7.966;2023-05-16T00:59:46;10.30;99.90
6106;DHT22;3083;51.508;7.966;2023-05-16T01:02:13;10.30;99.90
6106;DHT22;3083;51.508;7.966;2023-05-16T01:04:40;10.30;99.90
6106;DHT22;3083;51.508;7.966;2023-05-16T01:07:07;10.30;99.90
6106;DHT22;3083;51.508;7.966;2023-05-16T01:09:33;10.20;99.90
6106;DHT22;3083;51.508;7.966;2023-05-16T01:12:01;10.20;99.90
6106;DHT22;3083;51.508;7.966;2023-05-16T01:14:36;10.20;99.90
6106;DHT22;3083;51.508;7.966;2023-05-16T01:17:04;10.20;99.90
6106;DHT22;3083;51.508;7.966;2023-05-16T01:19:39;10.20;99.90
6106;DHT22;3083;51.508;7.966;2023-05-16T01:22:10;10.20;99.90
6106;DHT22;3083;51.508;7.966;2023-05-16T01:24:43;10.20;99.90
6106;DHT22;3083;51.508;7.966;2023-05-16T01:27:17;10.30;99.90
6106;DHT22;3083;51.508;7.966;2023-05-16T01:29:44;10.30;99.90
6106;DHT22;3083;51.508;7.966;2023-05-16T01:32:10;10.30;99.90
6106;DHT22;3083;51.508;7.966;2023-05-16T01:34:38;10.40;99.90
6106;DHT22;3083;51.508;7.966;2023-05-16T01:37:07;10.40;99.90
6106;DHT22;3083;51.508;7.966;2023-05-16T01:39:36;10.50;99.90
6106;DHT22;3083;51.508;7.966;2023-05-16T01:42:07;10.50;99.90
6106;DHT22;3083;51.508;7.966;2023-05-16T01:44:39;10.50;99.90
6106;DHT22;3083;51.508;7.966;2023-05-16T01:47:08;10.50;99.90
6106;DHT22;3083;51.508;7.966;2023-05-16T01:49:37;10.40;99.90
6106;DHT22;3083;51.508;7.966;2023-05-16T01:52:07;10.40;99.90
6106;DHT22;3083;51.508;7.966;2023-05-16T01:54:36;10.40;99.90
6106;DHT22;3083;51.508;7.966;2023-05-16T01:57:03;10.40;99.90
6106;DHT22;3083;51.508;7.966;2023-05-16T01:59:30;10.50;99.90
6106;DHT22;3083;51.508;7.966;2023-05-16T02:01:58;10.50;99.90
6106;DHT22;3083;51.508;7.966;2023-05-16T02:04:25;10.40;99.90
6106;DHT22;3083;51.508;7.966;2023-05-16T02:06:52;10.40;99.90
6106;DHT22;3083;51.508;7.966;2023-05-16T02:09:19;10.40;99.90
6106;DHT22;3083;51.508;7.966;2023-05-16T02:11:45;10.40;99.90
6106;DHT22;3083;51.508;7.966;2023-05-16T02:14:12;10.40;99.90
6106;DHT22;3083;51.508;7.966;2023-05-16T02:16:39;10.40;99.90
6106;DHT22;3083;51.508;7.966;2023-05-16T02:19:07;10.40;99.90
6106;DHT22;3083;51.508;7.966;2023-05-16T02:21:33;10.40;99.90
6106;DHT22;3083;51.508;7.966;2023-05-16T02:24:00;10.40;99.90
6106;DHT22;3083;51.508;7.966;2023-05-16T02:26:27;10.30;99.90
6106;DHT22;3083;51.508;7.966;2023-05-16T02:28:53;10.20;99.90
6106;DHT22;3083;51.508;7.966;2023-05-16T02:31:26;10.10;99.90
6106;DHT22;3083;51.508;7.966;2023-05-16T02:33:53;10.00;99.90
6106;DHT22;3083;51.508;7.966;2023-05-16T02:36:21;9.90;99.90
6106;DHT22;3083;51.508;7.966;2023-05-16T02:38:48;9.80;99.90
6106;DHT22;3083;51.508;7.966;2023-05-16T02:41:14;9.70;99.90
6106;DHT22;3083;51.508;7.966;2023-05-16T02:43:41;9.50;99.90
6106;DHT22;3083;51.508;7.966;2023-05-16T02:46:21;9.30;99.90
6106;DHT22;3083;51.508;7.966;2023-05-16T02:48:48;9.20;99.90
6106;DHT22;3083;51.508;7.966;2023-05-16T02:51:16;9.00;99.90
6106;DHT22;3083;51.508;7.966;2023-05-16T02:53:44;9.00;99.90
6106;DHT22;3083;51.508;7.966;2023-05-16T02:56:11;8.90;99.90
6106;DHT22;3083;51.508;7.966;2023-05-16T02:58:37;8.90;99.90
6106;DHT22;3083;51.508;7.966;2023-05-16T03:01:04;8.80;99.90
6106;DHT22;3083;51.508;7.966;2023-05-16T03:03:31;8.80;99.90
6106;DHT22;3083;51.508;7.966;2023-05-16T03:06:00;8.80;99.90
6106;DHT22;3083;51.508;7.966;2023-05-16T03:08:27;8.80;99.90
6106;DHT22;3083;51.508;7.966;2023-05-16T03:10:55;8.80;99.90
6106;DHT22;3083;51.508;7.966;2023-05-16T03:13:22;8.80;99.90
6106;DHT22;3083;51.508;7.966;2023-05-16T03:15:49;8.80;99.90
6106;DHT22;3083;51.508;7.966;2023-05-16T03:18:16;8.80;99.90
6106;DHT22;3083;51.508;7.966;2023-05-16T03:20:43;8.80;99.90
6106;DHT22;3083;51.508;7.966;2023-05-16T03:23:09;8.70;99.90
6106;DHT22;3083;51.508;7.966;2023-05-16T03:25:37;8.70;99.90
6106;DHT22;3083;51.508;7.966;2023-05-16T03:28:06;8.70;99.90
6106;DHT22;3083;51.508;7.966;2023-05-16T03:30:33;8.70;99.90
6106;DHT22;3083;51.508;7.966;2023-05-16T03:33:00;8.70;99.90
6106;DHT22;3083;51.508;7.966;2023-05-16T03:35:28;8.70;99.90
6106;DHT22;3083;51.508;7.966;2023-05-16T03:37:55;8.80;99.90
6106;DHT22;3083;51.508;7.966;2023-05-16T03:40:22;8.70;99.90
6106;DHT22;3083;51.508;7.966;2023-05-16T03:42:48;8.60;99.90
6106;DHT22;3083;51.508;7.966;2023-05-16T03:45:17;8.60;99.90
6106;DHT22;3083;51.508;7.966;2023-05-16T03:47:44;8.60;99.90
6106;DHT22;3083;51.508;7.966;2023-05-16T03:50:11;8.60;99.90
6106;DHT22;3083;51.508;7.966;2023-05-16T03:52:37;8.60;99.90
6106;DHT22;3083;51.508;7.966;2023-05-16T03:55:05;8.60;99.90
6106;DHT22;3083;51.508;7.966;2023-05-16T03:57:33;8.60;99.90
6106;DHT22;3083;51.508;7.966;2023-05-16T04:00:00;8.60;99.90
6106;DHT22;3083;51.508;7.966;2023-05-16T04:02:29;8.60;99.90
6106;DHT22;3083;51.508;7.966;2023-05-16T04:04:56;8.70;99.90
6106;DHT22;3083;51.508;7.966;2023-05-16T04:07:23;8.70;99.90
6106;DHT22;3083;51.508;7.966;2023-05-16T04:09:50;8.70;99.90
6106;DHT22;3083;51.508;7.966;2023-05-16T04:12:17;8.70;99.90
6106;DHT22;3083;51.508;7.966;2023-05-16T04:14:44;8.70;99.90
6106;DHT22;3083;51.508;7.966;2023-05-16T04:17:11;8.60;99.90
6106;DHT22;3083;51.508;7.966;2023-05-16T04:19:39;8.60;99.90
6106;DHT22;3083;51.508;7.966;2023-05-16T04:22:06;8.60;99.90
6106;DHT22;3083;51.508;7.966;2023-05-16T04:24:33;8.50;99.90
6106;DHT22;3083;51.508;7.966;2023-05-16T04:27:00;8.50;99.90
6106;DHT22;3083;51.508;7.966;2023-05-16T04:29:26;8.50;99.90
6106;DHT22;3083;51.508;7.966;2023-05-16T04:31:53;8.50;99.90
6106;DHT22;3083;51.508;7.966;2023-05-16T04:34:20;8.50;99.90
6106;DHT22;3083;51.508;7.966;2023-05-16T04:36:48;8.50;99.90
6106;DHT22;3083;51.508;7.966;2023-05-16T04:39:16;8.60;99.90
6106;DHT22;3083;51.508;7.966;2023-05-16T04:41:42;8.60;99.90
6106;DHT22;3083;51.508;7.966;2023-05-16T04:44:09;8.60;99.90
6106;DHT22;3083;51.508;7.966;2023-05-16T04:46:36;8.60;99.90
6106;DHT22;3083;51.508;7.966;2023-05-16T04:49:03;8.60;99.90
6106;DHT22;3083;51.508;7.966;2023-05-16T04:51:30;8.50;99.90
6106;DHT22;3083;51.508;7.966;2023-05-16T04:53:59;8.50;99.90
6106;DHT22;3083;51.508;7.966;2023-05-16T04:56:26;8.40;99.90
6106;DHT22;3083;51.508;7.966;2023-05-16T04:58:53;8.40;99.90
6106;DHT22;3083;51.508;7.966;2023-05-16T05:01:20;8.40;99.90
6106;DHT22;3083;51.508;7.966;2023-05-16T05:03:47;8.40;99.90
6106;DHT22;3083;51.508;7.966;2023-05-16T05:06:14;8.30;99.90
6106;DHT22;3083;51.508;7.966;2023-05-16T05:08:41;8.30;99.90
6106;DHT22;3083;51.508;7.966;2023-05-16T05:11:09;8.30;99.90
6106;DHT22;3083;51.508;7.966;2023-05-16T05:13:36;8.30;99.90
6106;DHT22;3083;51.508;7.966;2023-05-16T05:16:03;8.30;99.90
6106;DHT22;3083;51.508;7.966;2023-05-16T05:18:30;8.30;99.90
6106;DHT22;3083;51.508;7.966;2023-05-16T05:20:57;8.30;99.90
6106;DHT22;3083;51.508;7.966;2023-05-16T05:23:24;8.30;99.90
6106;DHT22;3083;51.508;7.966;2023-05-16T05:25:51;8.30;99.90
6106;DHT22;3083;51.508;7.966;2023-05-16T05:28:19;8.30;99.90
6106;DHT22;3083;51.508;7.966;2023-05-16T05:30:46;8.20;99.90
6106;DHT22;3083;51.508;7.966;2023-05-16T05:33:16;8.20;99.90
6106;DHT22;3083;51.508;7.966;2023-05-16T05:35:43;8.20;99.90
6106;DHT22;3083;51.508;7.966;2023-05-16T05:38:10;8.20;99.90
6106;DHT22;3083;51.508;7.966;2023-05-16T05:40:36;8.20;99.90
6106;DHT22;3083;51.508;7.966;2023-05-16T05:43:03;8.20;99.90
6106;DHT22;3083;51.508;7.966;2023-05-16T05:45:32;8.20;99.90
6106;DHT22;3083;51.508;7.966;2023-05-16T05:47:58;8.20;99.90
6106;DHT22;3083;51.508;7.966;2023-05-16T05:50:25;8.20;99.90
6106;DHT22;3083;51.508;7.966;2023-05-16T05:52:52;8.30;99.90
6106;DHT22;3083;51.508;7.966;2023-05-16T05:55:19;8.40;99.90
6106;DHT22;3083;51.508;7.966;2023-05-16T05:57:45;8.50;99.90
6106;DHT22;3083;51.508;7.966;2023-05-16T06:00:12;8.80;99.90
6106;DHT22;3083;51.508;7.966;2023-05-16T06:02:40;9.20;99.90
6106;DHT22;3083;51.508;7.966;2023-05-16T06:05:07;9.50;99.90
6106;DHT22;3083;51.508;7.966;2023-05-16T06:07:34;9.80;99.90
6106;DHT22;3083;51.508;7.966;2023-05-16T06:10:01;10.00;99.90
6106;DHT22;3083;51.508;7.966;2023-05-16T06:12:29;10.10;99.90
6106;DHT22;3083;51.508;7.966;2023-05-16T06:14:56;10.20;99.90
6106;DHT22;3083;51.508;7.966;2023-05-16T06:17:22;10.40;99.90
6106;DHT22;3083;51.508;7.966;2023-05-16T06:19:51;10.50;99.90
6106;DHT22;3083;51.508;7.966;2023-05-16T06:22:18;10.70;99.90
6106;DHT22;3083;51.508;7.966;2023-05-16T06:24:45;10.80;99.90
6106;DHT22;3083;51.508;7.966;2023-05-16T06:27:11;11.00;99.90
6106;DHT22;3083;51.508;7.966;2023-05-16T06:29:38;10.90;99.90
6106;DHT22;3083;51.508;7.966;2023-05-16T06:32:06;11.00;99.90
6106;DHT22;3083;51.508;7.966;2023-05-16T06:34:33;11.00;99.90
6106;DHT22;3083;51.508;7.966;2023-05-16T06:37:01;11.10;99.90
6106;DHT22;3083;51.508;7.966;2023-05-16T06:39:28;11.20;99.90
6106;DHT22;3083;51.508;7.966;2023-05-16T06:41:55;11.10;99.90
6106;DHT22;3083;51.508;7.966;2023-05-16T06:44:22;10.90;99.90
6106;DHT22;3083;51.508;7.966;2023-05-16T06:46:49;10.90;99.90
6106;DHT22;3083;51.508;7.966;2023-05-16T06:49:15;11.20;99.90
6106;DHT22;3083;51.508;7.966;2023-05-16T06:51:42;11.50;99.90
6106;DHT22;3083;51.508;7.966;2023-05-16T06:54:11;11.80;99.90
6106;DHT22;3083;51.508;7.966;2023-05-16T06:56:38;12.00;99.90
6106;DHT22;3083;51.508;7.966;2023-05-16T06:59:04;12.20;99.90
6106;DHT22;3083;51.508;7.966;2023-05-16T07:01:31;12.10;99.90
6106;DHT22;3083;51.508;7.966;2023-05-16T07:03:58;12.00;99.90
6106;DHT22;3083;51.508;7.966;2023-05-16T07:06:25;11.90;99.90
6106;DHT22;3083;51.508;7.966;2023-05-16T07:08:52;11.70;99.90
6106;DHT22;3083;51.508;7.966;2023-05-16T07:11:20;11.50;99.90
6106;DHT22;3083;51.508;7.966;2023-05-16T07:13:47;11.30;99.90
6106;DHT22;3083;51.508;7.966;2023-05-16T07:16:14;11.30;99.90
6106;DHT22;3083;51.508;7.966;2023-05-16T07:18:40;11.40;99.90
6106;DHT22;3083;51.508;7.966;2023-05-16T07:21:08;11.80;99.90
6106;DHT22;3083;51.508;7.966;2023-05-16T07:23:35;12.10;99.90
6106;DHT22;3083;51.508;7.966;2023-05-16T07:26:02;12.00;99.90
6106;DHT22;3083;51.508;7.966;2023-05-16T07:28:31;11.90;99.90
6106;DHT22;3083;51.508;7.966;2023-05-16T07:30:57;12.10;99.90
6106;DHT22;3083;51.508;7.966;2023-05-16T07:33:25;12.50;99.90
6106;DHT22;3083;51.508;7.966;2023-05-16T07:35:52;13.10;99.90
6106;DHT22;3083;51.508;7.966;2023-05-16T07:38:20;13.70;99.90
6106;DHT22;3083;51.508;7.966;2023-05-16T07:40:46;13.90;99.90
6106;DHT22;3083;51.508;7.966;2023-05-16T07:43:14;14.00;99.90
6106;DHT22;3083;51.508;7.966;2023-05-16T07:45:42;13.50;99.90
6106;DHT22;3083;51.508;7.966;2023-05-16T07:48:09;13.40;99.90
6106;DHT22;3083;51.508;7.966;2023-05-16T07:50:36;13.70;99.90
6106;DHT22;3083;51.508;7.966;2023-05-16T07:53:03;14.00;99.90
6106;DHT22;3083;51.508;7.966;2023-05-16T07:55:29;14.20;99.90
6106;DHT22;3083;51.508;7.966;2023-05-16T07:57:56;14.30;99.90
6106;DHT22;3083;51.508;7.966;2023-05-16T08:00:23;14.60;99.90
6106;DHT22;3083;51.508;7.966;2023-05-16T08:02:51;14.80;99.90
6106;DHT22;3083;51.508;7.966;2023-05-16T08:05:18;14.90;99.90
6106;DHT22;3083;51.508;7.966;2023-05-16T08:07:45;14.70;99.90
6106;DHT22;3083;51.508;7.966;2023-05-16T08:10:12;14.70;99.90
6106;DHT22;3083;51.508;7.966;2023-05-16T08:12:39;14.70;99.90
6106;DHT22;3083;51.508;7.966;2023-05-16T08:15:07;14.70;99.90
6106;DHT22;3083;51.508;7.966;2023-05-16T08:17:34;14.80;99.90
6106;DHT22;3083;51.508;7.966;2023-05-16T08:20:03;14.50;99.90
6106;DHT22;3083;51.508;7.966;2023-05-16T08:22:31;14.30;99.90
6106;DHT22;3083;51.508;7.966;2023-05-16T08:24:58;13.90;99.90
6106;DHT22;3083;51.508;7.966;2023-05-16T08:27:25;13.70;99.90
6106;DHT22;3083;51.508;7.966;2023-05-16T08:29:52;13.40;99.90
6106;DHT22;3083;51.508;7.966;2023-05-16T08:32:20;13.40;99.90
6106;DHT22;3083;51.508;7.966;2023-05-16T08:34:47;13.70;99.90
6106;DHT22;3083;51.508;7.966;2023-05-16T08:37:15;14.20;99.90
6106;DHT22;3083;51.508;7.966;2023-05-16T08:39:42;14.50;99.90
6106;DHT22;3083;51.508;7.966;2023-05-16T08:42:09;14.80;99.90
6106;DHT22;3083;51.508;7.966;2023-05-16T08:44:36;15.00;99.90
6106;DHT22;3083;51.508;7.966;2023-05-16T08:47:12;15.00;99.90
6106;DHT22;3083;51.508;7.966;2023-05-16T08:49:40;14.60;99.90
6106;DHT22;3083;51.508;7.966;2023-05-16T08:52:08;14.20;99.90
6106;DHT22;3083;51.508;7.966;2023-05-16T08:54:37;13.80;99.90
6106;DHT22;3083;51.508;7.966;2023-05-16T08:57:05;13.50;99.90
6106;DHT22;3083;51.508;7.966;2023-05-16T08:59:32;13.20;99.90
6106;DHT22;3083;51.508;7.966;2023-05-16T09:02:00;13.00;99.90
6106;DHT22;3083;51.508;7.966;2023-05-16T09:04:28;13.30;99.90
6106;DHT22;3083;51.508;7.966;2023-05-16T09:06:55;13.70;99.90
6106;DHT22;3083;51.508;7.966;2023-05-16T09:09:22;13.80;99.90
6106;DHT22;3083;51.508;7.966;2023-05-16T09:11:51;14.00;99.90
6106;DHT22;3083;51.508;7.966;2023-05-16T09:14:17;14.20;99.90
6106;DHT22;3083;51.508;7.966;2023-05-16T09:16:44;14.40;99.90
6106;DHT22;3083;51.508;7.966;2023-05-16T09:19:36;14.40;99.90
6106;DHT22;3083;51.508;7.966;2023-05-16T09:22:03;14.30;99.90
6106;DHT22;3083;51.508;7.966;2023-05-16T09:24:30;14.20;99.90
6106;DHT22;3083;51.508;7.966;2023-05-16T09:27:06;14.40;99.90
6106;DHT22;3083;51.508;7.966;2023-05-16T09:29:33;14.80;99.90
6106;DHT22;3083;51.508;7.966;2023-05-16T09:32:07;15.30;99.90
6106;DHT22;3083;51.508;7.966;2023-05-16T09:34:37;15.40;99.90
6106;DHT22;3083;51.508;7.966;2023-05-16T09:37:04;15.40;99.90
6106;DHT22;3083;51.508;7.966;2023-05-16T09:39:31;15.50;99.90
6106;DHT22;3083;51.508;7.966;2023-05-16T09:41:59;15.40;99.90
6106;DHT22;3083;51.508;7.966;2023-05-16T09:44:26;15.00;99.90
6106;DHT22;3083;51.508;7.966;2023-05-16T09:46:54;14.80;99.90
6106;DHT22;3083;51.508;7.966;2023-05-16T09:49:21;14.80;99.90
6106;DHT22;3083;51.508;7.966;2023-05-16T09:51:49;14.80;99.90
6106;DHT22;3083;51.508;7.966;2023-05-16T09:54:28;15.10;99.90
6106;DHT22;3083;51.508;7.966;2023-05-16T09:56:55;15.30;99.90
6106;DHT22;3083;51.508;7.966;2023-05-16T09:59:23;15.80;99.90
6106;DHT22;3083;51.508;7.966;2023-05-16T10:01:52;16.20;99.90
6106;DHT22;3083;51.508;7.966;2023-05-16T10:04:19;16.30;99.90
6106;DHT22;3083;51.508;7.966;2023-05-16T10:06:47;16.10;99.90
6106;DHT22;3083;51.508;7.966;2023-05-16T10:09:15;15.80;99.90
6106;DHT22;3083;51.508;7.966;2023-05-16T10:11:44;15.30;99.90
6106;DHT22;3083;51.508;7.966;2023-05-16T10:14:13;15.10;99.90
6106;DHT22;3083;51.508;7.966;2023-05-16T10:16:46;15.10;99.90
6106;DHT22;3083;51.508;7.966;2023-05-16T10:19:13;15.10;99.90
6106;DHT22;3083;51.508;7.966;2023-05-16T10:21:49;15.00;99.90
6106;DHT22;3083;51.508;7.966;2023-05-16T10:24:23;15.00;99.90
6106;DHT22;3083;51.508;7.966;2023-05-16T10:26:52;15.00;99.90
6106;DHT22;3083;51.508;7.966;2023-05-16T10:29:19;14.90;99.90
6106;DHT22;3083;51.508;7.966;2023-05-16T10:31:47;15.10;99.90
6106;DHT22;3083;51.508;7.966;2023-05-16T10:34:15;15.40;99.90
6106;DHT22;3083;51.508;7.966;2023-05-16T10:36:42;15.90;99.90
6106;DHT22;3083;51.508;7.966;2023-05-16T10:39:10;16.20;99.90
6106;DHT22;3083;51.508;7.966;2023-05-16T10:41:37;16.30;99.90
6106;DHT22;3083;51.508;7.966;2023-05-16T10:44:12;16.20;99.90
6106;DHT22;3083;51.508;7.966;2023-05-16T10:46:39;16.00;99.90
6106;DHT22;3083;51.508;7.966;2023-05-16T10:49:20;15.90;99.90
6106;DHT22;3083;51.508;7.966;2023-05-16T10:52:06;16.10;99.90
6106;DHT22;3083;51.508;7.966;2023-05-16T10:54:34;16.30;99.90
6106;DHT22;3083;51.508;7.966;2023-05-16T10:57:04;16.70;99.90
6106;DHT22;3083;51.508;7.966;2023-05-16T10:59:43;17.20;99.90
6106;DHT22;3083;51.508;7.966;2023-05-16T11:02:24;17.50;99.90
6106;DHT22;3083;51.508;7.966;2023-05-16T11:04:55;18.10;99.90
6106;DHT22;3083;51.508;7.966;2023-05-16T11:07:25;18.20;99.90
6106;DHT22;3083;51.508;7.966;2023-05-16T11:10:06;17.90;99.90
6106;DHT22;3083;51.508;7.966;2023-05-16T11:12:43;17.90;99.90
6106;DHT22;3083;51.508;7.966;2023-05-16T11:15:23;17.70;99.90
6106;DHT22;3083;51.508;7.966;2023-05-16T11:17:50;17.30;99.90
6106;DHT22;3083;51.508;7.966;2023-05-16T11:20:30;17.10;99.90
6106;DHT22;3083;51.508;7.966;2023-05-16T11:23:21;16.70;99.90
6106;DHT22;3083;51.508;7.966;2023-05-16T11:25:54;16.30;99.90
6106;DHT22;3083;51.508;7.966;2023-05-16T11:28:23;16.20;99.90
6106;DHT22;3083;51.508;7.966;2023-05-16T11:30:53;15.90;99.90
6106;DHT22;3083;51.508;7.966;2023-05-16T11:33:22;15.80;99.90
6106;DHT22;3083;51.508;7.966;2023-05-16T11:36:01;16.10;99.90
6106;DHT22;3083;51.508;7.966;2023-05-16T11:38:29;16.50;99.90
6106;DHT22;3083;51.508;7.966;2023-05-16T11:41:02;16.80;99.90
6106;DHT22;3083;51.508;7.966;2023-05-16T11:43:29;16.90;99.90
6106;DHT22;3083;51.508;7.966;2023-05-16T11:46:02;16.90;99.90
6106;DHT22;3083;51.508;7.966;2023-05-16T11:48:29;16.90;99.90
6106;DHT22;3083;51.508;7.966;2023-05-16T11:50:56;16.70;99.90
6106;DHT22;3083;51.508;7.966;2023-05-16T11:53:24;16.60;99.90
6106;DHT22;3083;51.508;7.966;2023-05-16T11:55:52;16.50;99.90
6106;DHT22;3083;51.508;7.966;2023-05-16T11:58:19;16.60;99.90
6106;DHT22;3083;51.508;7.966;2023-05-16T12:00:47;16.70;99.90
6106;DHT22;3083;51.508;7.966;2023-05-16T12:03:16;16.80;99.90
6106;DHT22;3083;51.508;7.966;2023-05-16T12:05:49;16.80;99.90
6106;DHT22;3083;51.508;7.966;2023-05-16T12:08:17;16.70;99.90
6106;DHT22;3083;51.508;7.966;2023-05-16T12:10:48;16.90;99.90
6106;DHT22;3083;51.508;7.966;2023-05-16T12:13:16;17.20;99.90
6106;DHT22;3083;51.508;7.966;2023-05-16T12:15:43;17.00;99.90
6106;DHT22;3083;51.508;7.966;2023-05-16T12:18:10;16.70;99.90
6106;DHT22;3083;51.508;7.966;2023-05-16T12:20:37;16.30;99.90
6106;DHT22;3083;51.508;7.966;2023-05-16T12:23:04;16.00;99.90
6106;DHT22;3083;51.508;7.966;2023-05-16T12:25:36;15.70;99.90
6106;DHT22;3083;51.508;7.966;2023-05-16T12:28:07;15.50;99.90
6106;DHT22;3083;51.508;7.966;2023-05-16T12:30:34;15.30;99.90
6106;DHT22;3083;51.508;7.966;2023-05-16T12:33:02;15.30;99.90
6106;DHT22;3083;51.508;7.966;2023-05-16T12:35:32;15.30;99.90
6106;DHT22;3083;51.508;7.966;2023-05-16T12:37:59;15.30;99.90
6106;DHT22;3083;51.508;7.966;2023-05-16T12:40:27;15.60;99.90
6106;DHT22;3083;51.508;7.966;2023-05-16T12:42:54;16.00;99.90
6106;DHT22;3083;51.508;7.966;2023-05-16T12:45:23;16.30;99.90
6106;DHT22;3083;51.508;7.966;2023-05-16T12:47:50;16.60;99.90
6106;DHT22;3083;51.508;7.966;2023-05-16T12:50:16;16.90;99.90
6106;DHT22;3083;51.508;7.966;2023-05-16T12:52:48;17.20;99.90
6106;DHT22;3083;51.508;7.966;2023-05-16T12:55:15;17.50;99.90
6106;DHT22;3083;51.508;7.966;2023-05-16T12:57:42;17.80;99.90
6106;DHT22;3083;51.508;7.966;2023-05-16T13:00:11;18.10;99.90
6106;DHT22;3083;51.508;7.966;2023-05-16T13:02:40;18.00;99.90
6106;DHT22;3083;51.508;7.966;2023-05-16T13:05:07;17.80;99.90
6106;DHT22;3083;51.508;7.966;2023-05-16T13:07:34;17.60;99.90
6106;DHT22;3083;51.508;7.966;2023-05-16T13:10:02;17.40;99.90
6106;DHT22;3083;51.508;7.966;2023-05-16T13:12:30;17.30;99.90
6106;DHT22;3083;51.508;7.966;2023-05-16T13:14:57;17.00;99.90
6106;DHT22;3083;51.508;7.966;2023-05-16T13:17:24;16.70;99.90
6106;DHT22;3083;51.508;7.966;2023-05-16T13:19:52;16.40;99.90
6106;DHT22;3083;51.508;7.966;2023-05-16T13:22:19;16.20;99.90
6106;DHT22;3083;51.508;7.966;2023-05-16T13:24:46;16.00;99.90
6106;DHT22;3083;51.508;7.966;2023-05-16T13:27:15;15.80;99.90
6106;DHT22;3083;51.508;7.966;2023-05-16T13:29:42;15.60;99.90
6106;DHT22;3083;51.508;7.966;2023-05-16T13:32:09;15.50;99.90
6106;DHT22;3083;51.508;7.966;2023-05-16T13:34:36;15.30;99.90
6106;DHT22;3083;51.508;7.966;2023-05-16T13:37:04;15.40;99.90
6106;DHT22;3083;51.508;7.966;2023-05-16T13:39:31;15.70;99.90
6106;DHT22;3083;51.508;7.966;2023-05-16T13:41:58;16.00;99.90
6106;DHT22;3083;51.508;7.966;2023-05-16T13:44:25;16.20;99.90
6106;DHT22;3083;51.508;7.966;2023-05-16T13:46:52;16.30;99.90
6106;DHT22;3083;51.508;7.966;2023-05-16T13:49:19;16.40;99.90
6106;DHT22;3083;51.508;7.966;2023-05-16T13:51:46;16.60;99.90
6106;DHT22;3083;51.508;7.966;2023-05-16T13:54:14;16.80;99.90
6106;DHT22;3083;51.508;7.966;2023-05-16T13:56:41;16.80;99.90
6106;DHT22;3083;51.508;7.966;2023-05-16T13:59:08;16.80;99.90
6106;DHT22;3083;51.508;7.966;2023-05-16T14:01:35;16.80;99.90
6106;DHT22;3083;51.508;7.966;2023-05-16T14:04:02;16.70;99.90
6106;DHT22;3083;51.508;7.966;2023-05-16T14:06:29;16.50;99.90
6106;DHT22;3083;51.508;7.966;2023-05-16T14:08:56;16.30;99.90
6106;DHT22;3083;51.508;7.966;2023-05-16T14:11:24;16.20;99.90
6106;DHT22;3083;51.508;7.966;2023-05-16T14:13:51;16.10;99.90
6106;DHT22;3083;51.508;7.966;2023-05-16T14:16:19;16.00;99.90
6106;DHT22;3083;51.508;7.966;2023-05-16T14:18:46;15.90;99.90
6106;DHT22;3083;51.508;7.966;2023-05-16T14:21:13;16.00;99.90
6106;DHT22;3083;51.508;7.966;2023-05-16T14:23:40;16.10;99.90
6106;DHT22;3083;51.508;7.966;2023-05-16T14:26:07;16.10;99.90
6106;DHT22;3083;51.508;7.966;2023-05-16T14:28:35;16.10;99.90
6106;DHT22;3083;51.508;7.966;2023-05-16T14:31:02;16.30;99.90
6106;DHT22;3083;51.508;7.966;2023-05-16T14:33:28;16.40;99.90
6106;DHT22;3083;51.508;7.966;2023-05-16T14:35:57;16.50;99.90
6106;DHT22;3083;51.508;7.966;2023-05-16T14:38:24;16.50;99.90
6106;DHT22;3083;51.508;7.966;2023-05-16T14:40:51;16.60;99.90
6106;DHT22;3083;51.508;7.966;2023-05-16T14:43:17;16.60;99.90
6106;DHT22;3083;51.508;7.966;2023-05-16T14:45:46;16.50;99.90
6106;DHT22;3083;51.508;7.966;2023-05-16T14:48:13;16.50;99.90
6106;DHT22;3083;51.508;7.966;2023-05-16T14:50:41;16.50;99.90
6106;DHT22;3083;51.508;7.966;2023-05-16T14:53:08;16.60;99.90
6106;DHT22;3083;51.508;7.966;2023-05-16T14:55:35;16.60;99.90
6106;DHT22;3083;51.508;7.966;2023-05-16T14:58:02;16.60;99.90
6106;DHT22;3083;51.508;7.966;2023-05-16T15:00:29;16.40;99.90
6106;DHT22;3083;51.508;7.966;2023-05-16T15:02:57;16.20;99.90
6106;DHT22;3083;51.508;7.966;2023-05-16T15:05:24;16.10;99.90
6106;DHT22;3083;51.508;7.966;2023-05-16T15:07:51;15.90;99.90
6106;DHT22;3083;51.508;7.966;2023-05-16T15:10:18;15.80;99.90
6106;DHT22;3083;51.508;7.966;2023-05-16T15:12:45;15.60;99.90
6106;DHT22;3083;51.508;7.966;2023-05-16T15:15:11;15.40;99.90
6106;DHT22;3083;51.508;7.966;2023-05-16T15:17:39;15.30;99.90
6106;DHT22;3083;51.508;7.966;2023-05-16T15:20:10;15.30;99.90
6106;DHT22;3083;51.508;7.966;2023-05-16T15:22:38;15.40;99.90
6106;DHT22;3083;51.508;7.966;2023-05-16T15:25:06;15.40;99.90
6106;DHT22;3083;51.508;7.966;2023-05-16T15:27:33;15.30;99.90
6106;DHT22;3083;51.508;7.966;2023-05-16T15:30:00;15.30;99.90
6106;DHT22;3083;51.508;7.966;2023-05-16T15:32:27;15.20;99.90
6106;DHT22;3083;51.508;7.966;2023-05-16T15:34:54;15.10;99.90
6106;DHT22;3083;51.508;7.966;2023-05-16T15:37:22;15.00;99.90
6106;DHT22;3083;51.508;7.966;2023-05-16T15:39:49;15.00;99.90
6106;DHT22;3083;51.508;7.966;2023-05-16T15:42:16;15.10;99.90
6106;DHT22;3083;51.508;7.966;2023-05-16T15:44:44;15.20;99.90
6106;DHT22;3083;51.508;7.966;2023-05-16T15:47:11;15.20;99.90
6106;DHT22;3083;51.508;7.966;2023-05-16T15:49:38;15.30;99.90
6106;DHT22;3083;51.508;7.966;2023-05-16T15:52:05;15.30;99.90
6106;DHT22;3083;51.508;7.966;2023-05-16T15:54:34;15.40;99.90
6106;DHT22;3083;51.508;7.966;2023-05-16T15:57:01;15.40;99.90
6106;DHT22;3083;51.508;7.966;2023-05-16T15:59:28;15.30;99.90
6106;DHT22;3083;51.508;7.966;2023-05-16T16:01:54;15.20;99.90
6106;DHT22;3083;51.508;7.966;2023-05-16T16:04:21;15.10;99.90
6106;DHT22;3083;51.508;7.966;2023-05-16T16:06:48;14.90;99.90
6106;DHT22;3083;51.508;7.966;2023-05-16T16:09:15;14.80;99.90